createdAt,value
2023-03-26T00:01:21.549Z,99811.06
2023-03-26T00:03:53.698Z,99813.62
2023-03-26T00:06:34.906Z,99816.78
2023-03-26T00:09:01.536Z,99811.22
2023-03-26T00:11:30.048Z,99803.84
2023-03-26T00:13:57.748Z,99797.47
2023-03-26T00:16:28.013Z,99804.22
2023-03-26T00:18:55.362Z,99793.44
2023-03-26T00:21:29.032Z,99799.62
2023-03-26T00:23:59.675Z,99801.22
2023-03-26T00:26:26.816Z,99793.25
2023-03-26T00:28:54.622Z,99794.81
2023-03-26T00:31:21.429Z,99788.34
2023-03-26T00:33:48.164Z,99794.66
2023-03-26T00:36:17.357Z,99790.81
2023-03-26T00:38:45.137Z,99792.56
2023-03-26T00:41:25.257Z,99784.59
2023-03-26T00:43:56.290Z,99794.97
2023-03-26T00:46:24.677Z,99791.22
2023-03-26T00:48:51.685Z,99793.97
2023-03-26T00:51:20.673Z,99786.81
2023-03-26T00:53:49.132Z,99785.41
2023-03-26T00:56:16.481Z,99784.59
2023-03-26T00:58:43.787Z,99780.41
2023-03-26T01:01:16.381Z,99781.03
2023-03-26T01:04:00.870Z,99773.16
2023-03-26T01:06:36.158Z,99766.41
2023-03-26T01:09:20.199Z,99773.34
2023-03-26T01:11:48.868Z,99773.16
2023-03-26T01:14:19.248Z,99784.12
2023-03-26T01:16:55.092Z,99781.34
2023-03-26T01:19:25.013Z,99786.13
2023-03-26T01:21:52.044Z,99787.47
2023-03-26T01:24:18.617Z,99786.78
2023-03-26T01:27:07.947Z,99789.16
2023-03-26T01:29:54.144Z,99785.88
2023-03-26T01:32:27.082Z,99790.66
2023-03-26T01:35:02.922Z,99788.47
2023-03-26T01:37:46.806Z,99778.31
2023-03-26T01:40:42.844Z,99780.87
2023-03-26T01:43:31.571Z,99791.94
2023-03-26T01:46:05.383Z,99784.22
2023-03-26T01:48:39.502Z,99785.50
2023-03-26T01:51:07.171Z,99797.56
2023-03-26T01:53:37.629Z,99797.03
2023-03-26T01:56:13.394Z,99785.78
2023-03-26T01:58:51.905Z,99789.91
2023-03-26T02:01:31.060Z,99786.03
2023-03-26T02:04:32.985Z,99788.06
2023-03-26T02:07:20.896Z,99782.72
2023-03-26T02:09:52.733Z,99781.50
2023-03-26T02:12:22.811Z,99781.22
2023-03-26T02:14:49.885Z,99790.97
2023-03-26T02:17:17.162Z,99785.84
2023-03-26T02:19:43.745Z,99791.53
2023-03-26T02:22:15.830Z,99791.38
2023-03-26T02:24:43.641Z,99796.97
2023-03-26T02:27:12.374Z,99797.72
2023-03-26T02:29:39.954Z,99802.25
2023-03-26T02:32:08.438Z,99805.97
2023-03-26T02:34:35.080Z,99798.66
2023-03-26T02:37:01.618Z,99798.91
2023-03-26T02:39:28.265Z,99799.78
2023-03-26T02:41:54.924Z,99799.31
2023-03-26T02:44:21.602Z,99799.50
2023-03-26T02:46:48.231Z,99802.31
2023-03-26T02:49:14.821Z,99800.06
2023-03-26T02:51:41.404Z,99795.03
2023-03-26T02:54:08.200Z,99797.97
2023-03-26T02:56:34.805Z,99789.88
2023-03-26T02:59:01.978Z,99794.06
2023-03-26T03:01:30.957Z,99788.37
2023-03-26T03:03:57.731Z,99789.69
2023-03-26T03:06:26.512Z,99786.41
2023-03-26T03:08:54.147Z,99778.91
2023-03-26T03:11:27.176Z,99786.97
2023-03-26T03:13:54.181Z,99786.13
2023-03-26T03:16:20.934Z,99791.12
2023-03-26T03:18:54.579Z,99795.28
2023-03-26T03:21:21.957Z,99788.94
2023-03-26T03:23:48.664Z,99778.97
2023-03-26T03:26:21.671Z,99778.28
2023-03-26T03:28:51.801Z,99779.50
2023-03-26T03:31:18.650Z,99779.56
2023-03-26T03:33:46.537Z,99793.88
2023-03-26T03:36:19.951Z,99793.00
2023-03-26T03:38:47.529Z,99799.25
2023-03-26T03:41:14.324Z,99796.53
2023-03-26T03:43:41.243Z,99793.97
2023-03-26T03:46:07.863Z,99797.69
2023-03-26T03:48:38.156Z,99793.81
2023-03-26T03:51:06.156Z,99794.97
2023-03-26T03:53:37.108Z,99804.16
2023-03-26T03:56:04.776Z,99808.94
2023-03-26T03:58:31.467Z,99812.47
2023-03-26T04:01:01.005Z,99819.25
2023-03-26T04:03:33.757Z,99824.06
2023-03-26T04:06:01.424Z,99815.22
2023-03-26T04:08:28.070Z,99815.72
2023-03-26T04:10:54.793Z,99823.09
2023-03-26T04:13:21.621Z,99816.03
2023-03-26T04:15:48.333Z,99814.09
2023-03-26T04:18:15.243Z,99821.47
2023-03-26T04:20:46.853Z,99810.75
2023-03-26T04:23:14.749Z,99816.34
2023-03-26T04:25:53.897Z,99815.72
2023-03-26T04:28:48.549Z,99814.25
2023-03-26T04:31:24.370Z,99807.66
2023-03-26T04:33:55.284Z,99813.44
2023-03-26T04:36:29.082Z,99814.41
2023-03-26T04:38:58.468Z,99806.38
2023-03-26T04:41:29.032Z,99810.22
2023-03-26T04:43:56.819Z,99813.44
2023-03-26T04:46:24.142Z,99800.91
2023-03-26T04:48:52.230Z,99804.13
2023-03-26T04:51:24.534Z,99801.88
2023-03-26T04:53:58.310Z,99811.69
2023-03-26T04:56:24.806Z,99822.28
2023-03-26T04:58:51.905Z,99822.75
2023-03-26T05:01:18.605Z,99820.34
2023-03-26T05:03:45.885Z,99816.19
2023-03-26T05:06:13.872Z,99820.84
2023-03-26T05:08:41.995Z,99817.31
2023-03-26T05:11:11.666Z,99823.25
2023-03-26T05:13:39.071Z,99813.59
2023-03-26T05:16:05.986Z,99809.22
2023-03-26T05:18:33.508Z,99810.47
2023-03-26T05:21:00.249Z,99809.09
2023-03-26T05:23:27.060Z,99813.59
2023-03-26T05:25:53.622Z,99809.47
2023-03-26T05:28:23.321Z,99809.69
2023-03-26T05:30:53.588Z,99818.72
2023-03-26T05:33:21.180Z,99808.69
2023-03-26T05:35:49.482Z,99808.50
2023-03-26T05:38:16.194Z,99813.44
2023-03-26T05:40:43.095Z,99805.44
2023-03-26T05:43:09.670Z,99804.50
2023-03-26T05:45:36.273Z,99811.66
2023-03-26T05:48:02.842Z,99811.41
2023-03-26T05:50:29.404Z,99809.06
2023-03-26T05:52:56.008Z,99814.16
2023-03-26T05:55:25.683Z,99811.13
2023-03-26T05:57:52.291Z,99811.31
2023-03-26T06:00:18.966Z,99805.97
2023-03-26T06:02:46.820Z,99807.03
2023-03-26T06:05:13.626Z,99799.09
2023-03-26T06:07:40.325Z,99792.81
2023-03-26T06:10:07.419Z,99793.66
2023-03-26T06:12:34.057Z,99803.91
2023-03-26T06:15:00.704Z,99794.03
2023-03-26T06:17:30.286Z,99795.34
2023-03-26T06:19:56.899Z,99791.34
2023-03-26T06:22:23.426Z,99792.84
2023-03-26T06:24:52.844Z,99792.00
2023-03-26T06:27:19.474Z,99787.00
2023-03-26T06:29:46.116Z,99785.88
2023-03-26T06:32:19.604Z,99786.63
2023-03-26T06:34:47.404Z,99797.19
2023-03-26T06:37:14.040Z,99787.53
2023-03-26T06:39:40.747Z,99794.16
2023-03-26T06:42:07.868Z,99797.31
2023-03-26T06:44:34.488Z,99795.06
2023-03-26T06:47:01.131Z,99799.88
2023-03-26T06:49:27.759Z,99792.91
2023-03-26T06:51:54.305Z,99794.72
2023-03-26T06:54:20.955Z,99807.94
2023-03-26T06:56:47.641Z,99805.81
2023-03-26T06:59:14.209Z,99802.81
2023-03-26T07:01:40.813Z,99805.09
2023-03-26T07:04:07.451Z,99809.87
2023-03-26T07:06:34.077Z,99806.59
2023-03-26T07:09:00.725Z,99808.03
2023-03-26T07:11:27.327Z,99821.13
2023-03-26T07:13:56.240Z,99810.56
2023-03-26T07:16:22.969Z,99814.75
2023-03-26T07:18:49.599Z,99829.19
2023-03-26T07:21:16.438Z,99820.72
2023-03-26T07:23:43.472Z,99821.31
2023-03-26T07:26:18.804Z,99822.78
2023-03-26T07:29:04.512Z,99816.53
2023-03-26T07:31:52.195Z,99814.56
2023-03-26T07:34:18.773Z,99811.84
2023-03-26T07:37:13.217Z,99812.66
2023-03-26T07:39:58.292Z,99811.25
2023-03-26T07:42:55.500Z,99818.28
2023-03-26T07:45:44.338Z,99810.81
2023-03-26T07:48:36.702Z,99817.19
2023-03-26T07:51:03.749Z,99818.03
2023-03-26T07:53:30.599Z,99817.19
2023-03-26T07:56:11.865Z,99815.56
2023-03-26T07:58:38.423Z,99820.59
2023-03-26T08:01:32.807Z,99811.31
2023-03-26T08:04:23.651Z,99813.91
2023-03-26T08:07:15.664Z,99803.91
2023-03-26T08:10:05.722Z,99806.50
2023-03-26T08:12:41.988Z,99808.22
2023-03-26T08:15:29.481Z,99804.88
2023-03-26T08:18:16.081Z,99798.03
2023-03-26T08:20:47.942Z,99792.75
2023-03-26T08:23:27.650Z,99783.69
2023-03-26T08:26:25.228Z,99786.16
2023-03-26T08:29:11.686Z,99787.03
2023-03-26T08:31:41.464Z,99788.28
2023-03-26T08:34:11.476Z,99792.47
2023-03-26T08:36:37.990Z,99784.16
2023-03-26T08:39:05.492Z,99794.06
2023-03-26T08:42:19.800Z,99791.72
2023-03-26T08:45:20.028Z,99784.47
2023-03-26T08:48:05.585Z,99789.28
2023-03-26T09:24:40.706Z,99763.56
2023-03-26T09:31:09.108Z,99760.13
2023-03-26T09:44:27.750Z,99729.75
2023-03-26T09:54:52.625Z,99733.38
2023-03-26T09:59:06.420Z,99722.44
2023-03-26T10:23:32.749Z,99674.41
2023-03-26T10:26:40.253Z,99674.41
2023-03-26T10:29:58.920Z,99682.09
2023-03-26T10:32:57.102Z,99672.28
2023-03-26T10:35:56.280Z,99701.66
2023-03-26T10:39:36.360Z,99689.81
2023-03-26T10:42:14.162Z,99667.88
2023-03-26T10:45:00.643Z,99677.06
2023-03-26T10:47:30.921Z,99680.28
2023-03-26T10:50:24.016Z,99669.72
2023-03-26T10:53:19.641Z,99662.28
2023-03-26T10:55:53.247Z,99662.84
2023-03-26T10:58:48.453Z,99654.28
2023-03-26T11:01:35.451Z,99648.78
2023-03-26T11:04:34.226Z,99643.84
2023-03-26T11:07:30.475Z,99641.63
2023-03-26T11:10:09.952Z,99618.69
2023-03-26T11:13:42.346Z,99627.75
2023-03-26T11:16:34.416Z,99618.19
2023-03-26T11:19:28.656Z,99614.28
2023-03-26T11:30:31.565Z,99591.84
2023-03-26T11:37:43.515Z,99573.97
2023-03-26T11:40:55.381Z,99563.19
2023-03-26T11:49:05.706Z,99540.19
2023-03-26T12:17:49.124Z,99489.97
2023-03-26T12:21:33.171Z,99476.28
2023-03-26T12:40:10.094Z,99436.16
2023-03-26T12:51:26.839Z,99419.06
2023-03-26T12:54:46.756Z,99420.28
2023-03-26T13:03:04.628Z,99413.28
2023-03-26T13:57:53.772Z,99318.84
2023-03-26T14:01:19.964Z,99313.94
2023-03-26T14:10:57.097Z,99293.84
2023-03-26T14:27:42.889Z,99277.87
2023-03-26T14:46:52.437Z,99259.00
2023-03-26T14:49:34.482Z,99244.81
2023-03-26T14:52:16.203Z,99236.78
2023-03-26T14:54:45.624Z,99237.81
2023-03-26T14:57:25.034Z,99238.16
2023-03-26T15:00:15.675Z,99234.72
2023-03-26T15:02:46.269Z,99233.75
2023-03-26T15:05:25.408Z,99230.13
2023-03-26T15:08:16.119Z,99226.00
2023-03-26T15:11:05.455Z,99211.91
2023-03-26T15:14:01.127Z,99203.28
2023-03-26T15:17:09.490Z,99203.22
2023-03-26T15:19:57.936Z,99199.81
2023-03-26T15:22:43.097Z,99194.31
2023-03-26T15:25:37.115Z,99192.87
2023-03-26T15:28:41.539Z,99195.44
2023-03-26T15:31:18.589Z,99193.56
2023-03-26T15:33:48.775Z,99186.22
2023-03-26T15:36:24.755Z,99184.94
2023-03-26T15:39:21.929Z,99177.03
2023-03-26T15:42:13.407Z,99170.16
2023-03-26T15:45:22.443Z,99181.97
2023-03-26T15:47:57.912Z,99181.44
2023-03-26T15:50:43.267Z,99177.37
2023-03-26T15:53:31.322Z,99173.47
2023-03-26T15:56:00.816Z,99172.22
2023-03-26T15:58:56.746Z,99166.78
2023-03-26T16:01:38.028Z,99163.94
2023-03-26T16:04:11.028Z,99165.28
2023-03-26T16:06:41.602Z,99158.97
2023-03-26T16:09:20.266Z,99156.91
2023-03-26T16:11:55.088Z,99145.63
2023-03-26T16:14:24.547Z,99143.53
2023-03-26T16:17:00.015Z,99136.16
2023-03-26T16:19:41.031Z,99129.38
2023-03-26T16:22:15.493Z,99131.44
2023-03-26T16:24:46.880Z,99118.59
2023-03-26T16:27:13.524Z,99117.53
2023-03-26T16:30:11.915Z,99113.34
2023-03-26T16:32:45.525Z,99108.81
2023-03-26T16:35:14.910Z,99097.56
2023-03-26T16:37:52.172Z,99097.28
2023-03-26T16:40:20.713Z,99100.88
2023-03-26T16:43:20.631Z,99088.56
2023-03-26T16:46:19.929Z,99089.22
2023-03-26T16:49:08.294Z,99086.69
2023-03-26T16:52:02.461Z,99093.78
2023-03-26T17:13:44.392Z,99101.44
2023-03-26T17:31:19.802Z,99102.06
2023-03-26T17:33:50.025Z,99092.19
2023-03-26T17:36:41.861Z,99099.88
2023-03-26T17:39:20.461Z,99097.94
2023-03-26T17:42:19.099Z,99094.75
2023-03-26T17:45:10.287Z,99098.41
2023-03-26T17:48:04.712Z,99086.87
2023-03-26T17:50:47.147Z,99089.09
2023-03-26T17:53:24.891Z,99084.84
2023-03-26T17:55:52.582Z,99086.72
2023-03-26T17:58:28.002Z,99088.75
2023-03-26T18:01:22.446Z,99088.72
2023-03-26T18:03:55.710Z,99094.03
2023-03-26T18:06:40.712Z,99091.56
2023-03-26T18:09:34.658Z,99080.44
2023-03-26T18:12:28.614Z,99085.28
2023-03-26T18:15:33.908Z,99077.31
2023-03-26T18:18:18.046Z,99080.03
2023-03-26T18:20:47.197Z,99076.66
2023-03-26T18:23:29.546Z,99077.78
2023-03-26T18:25:59.099Z,99080.09
2023-03-26T18:28:40.388Z,99075.81
2023-03-26T18:31:19.412Z,99073.59
2023-03-26T18:33:48.479Z,99070.34
2023-03-26T18:36:18.586Z,99075.56
2023-03-26T18:38:46.799Z,99070.34
2023-03-26T18:41:30.417Z,99070.25
2023-03-26T18:44:02.062Z,99058.38
2023-03-26T18:46:29.066Z,99060.81
2023-03-26T18:48:56.892Z,99056.13
2023-03-26T18:51:26.505Z,99061.50
2023-03-26T18:53:59.572Z,99055.34
2023-03-26T18:56:41.815Z,99051.00
2023-03-26T18:59:28.055Z,99052.38
2023-03-26T19:02:05.254Z,99046.03
2023-03-26T19:04:33.930Z,99028.19
2023-03-26T19:07:01.852Z,99025.84
2023-03-26T19:09:32.255Z,99017.19
2023-03-26T19:12:06.453Z,99016.84
2023-03-26T19:14:36.930Z,99010.75
2023-03-26T19:17:07.015Z,99009.00
2023-03-26T19:19:37.797Z,98998.62
2023-03-26T19:22:07.210Z,99007.88
2023-03-26T19:24:34.472Z,98999.34
2023-03-26T19:27:01.302Z,98991.28
2023-03-26T19:29:32.606Z,98993.84
2023-03-26T19:32:05.454Z,98986.56
2023-03-26T19:34:35.511Z,98986.31
2023-03-26T19:37:04.522Z,98977.47
2023-03-26T19:39:41.683Z,98974.25
2023-03-26T19:42:14.819Z,98978.69
2023-03-26T19:44:42.815Z,98967.13
2023-03-26T19:47:26.785Z,98963.63
2023-03-26T19:50:04.305Z,98960.78
2023-03-26T19:52:37.360Z,98952.97
2023-03-26T19:55:18.866Z,98946.16
2023-03-26T19:57:45.462Z,98937.53
2023-03-26T20:00:14.172Z,98944.53
2023-03-26T20:02:42.342Z,98930.00
2023-03-26T20:05:19.388Z,98923.16
2023-03-26T20:07:45.982Z,98912.00
2023-03-26T20:10:12.536Z,98912.69
2023-03-26T20:12:39.125Z,98907.53
2023-03-26T20:15:27.957Z,98906.62
2023-03-26T20:17:55.590Z,98901.53
2023-03-26T20:20:27.350Z,98902.19
2023-03-26T20:22:54.777Z,98893.53
2023-03-26T20:25:28.708Z,98882.25
2023-03-26T20:27:59.751Z,98871.69
2023-03-26T20:30:37.351Z,98862.78
2023-03-26T20:33:12.457Z,98862.31
2023-03-26T20:35:41.012Z,98857.28
2023-03-26T20:38:11.992Z,98843.63
2023-03-26T20:40:39.949Z,98837.88
2023-03-26T20:43:12.412Z,98833.63
2023-03-26T20:45:39.633Z,98824.72
2023-03-26T20:48:08.496Z,98827.94
2023-03-26T20:50:35.968Z,98833.06
2023-03-26T20:53:05.428Z,98821.19
2023-03-26T20:55:32.035Z,98819.69
2023-03-26T20:57:58.653Z,98825.88
2023-03-26T21:00:26.116Z,98822.47
2023-03-26T21:02:57.473Z,98823.06
2023-03-26T21:05:26.830Z,98826.34
2023-03-26T21:08:00.312Z,98813.44
2023-03-26T21:10:29.826Z,98815.69
2023-03-26T21:13:00.260Z,98809.25
2023-03-26T21:15:30.083Z,98821.97
2023-03-26T21:17:57.045Z,98825.38
2023-03-26T21:20:27.901Z,98826.66
2023-03-26T21:23:16.668Z,98833.25
2023-03-26T21:26:09.475Z,98825.38
2023-03-26T21:28:42.761Z,98839.78
2023-03-26T21:31:21.547Z,98831.53
2023-03-26T21:33:49.598Z,98827.34
2023-03-26T21:36:21.248Z,98827.00
2023-03-26T21:38:48.396Z,98828.69
2023-03-26T21:41:36.499Z,98829.75
2023-03-26T21:44:03.713Z,98831.56
2023-03-26T21:46:31.865Z,98824.63
2023-03-26T21:48:58.756Z,98835.78
2023-03-26T21:51:25.765Z,98847.12
2023-03-26T21:53:53.060Z,98851.00
2023-03-26T21:56:31.385Z,98851.28
2023-03-26T21:59:19.344Z,98851.53
2023-03-26T22:02:10.446Z,98851.78
2023-03-26T22:05:06.668Z,98848.00
2023-03-26T22:07:44.239Z,98849.91
2023-03-26T22:10:10.786Z,98854.19
2023-03-26T22:12:37.396Z,98853.88
2023-03-26T22:15:04.733Z,98851.34
2023-03-26T22:17:32.631Z,98855.59
2023-03-26T22:20:01.236Z,98851.81
2023-03-26T22:22:28.682Z,98840.16
2023-03-26T22:24:55.649Z,98851.63
2023-03-26T22:27:22.226Z,98842.87
2023-03-26T22:29:49.093Z,98836.34
2023-03-26T22:32:15.724Z,98826.66
2023-03-26T22:34:42.282Z,98831.41
2023-03-26T22:37:08.987Z,98828.03
2023-03-26T22:39:36.168Z,98827.94
2023-03-26T22:42:03.791Z,98832.38
2023-03-26T22:44:31.304Z,98830.25
2023-03-26T22:46:57.884Z,98838.81
2023-03-26T22:49:30.097Z,98833.78
2023-03-26T22:51:57.131Z,98834.31
2023-03-26T22:54:24.077Z,98823.94
2023-03-26T22:59:19.022Z,98818.19
2023-03-26T23:01:45.865Z,98812.22
2023-03-26T23:04:12.962Z,98822.03
2023-03-26T23:06:58.447Z,98816.50
2023-03-26T23:09:25.040Z,98810.78
2023-03-26T23:11:51.812Z,98809.19
2023-03-26T23:14:19.113Z,98805.59
2023-03-26T23:16:48.274Z,98802.66
2023-03-26T23:19:14.852Z,98802.31
2023-03-26T23:21:41.487Z,98805.37
2023-03-26T23:24:08.231Z,98795.78
2023-03-26T23:26:43.900Z,98800.19
2023-03-26T23:29:16.625Z,98802.47
2023-03-26T23:31:43.215Z,98798.06
2023-03-26T23:34:10.958Z,98785.88
2023-03-26T23:36:37.561Z,98786.31
2023-03-26T23:39:04.845Z,98778.31
2023-03-26T23:41:31.500Z,98775.31
2023-03-26T23:43:58.165Z,98762.91
2023-03-26T23:46:30.842Z,98757.16
2023-03-26T23:48:59.969Z,98745.75
2023-03-26T23:51:27.129Z,98742.53
2023-03-26T23:53:53.812Z,98732.62
2023-03-26T23:56:20.852Z,98722.81
2023-03-26T23:58:48.941Z,98716.72
